»·PEaware :: N9306P KVNY-KSNA

N9306P :: KVNY-KSNA

FLIGHT INFORMATION

Flight Status: Arrived
Operator: Privately registered:
United States
More flights under this callsign
Pilot: Manolo Torres (13839)
Aircraft: BEECH AIRCRAFT BONANZA
(BE36)
More flights by this aircraft type
Origin: KVNY Van Nuys
United States
Destination: KSNA John Wayne-Orange Co
United States
More flights between these airports :: More routes between these airports
Route: +ADAMM2 ADAMM V186 BAYJY V363 POXKU V8 SLI
File this flight plan on PilotEdge
Remarks: STUDENT PILOT - TEC route BURN20
Altitude:
(Current/Filed)
5,000ft
Speed:
(Current/Filed)
162kts
Departed: 11-Jan-17 10:20 AM
Arrived: 11-Jan-17 12:26 PM
Distance/Time
Traveled:
44nm/2:05
Distance/Time
To Go:
Arrived

Flight Plot

Page will automatically refresh every two minutes.


Map Options




Map Legend


Flown Route
Filed Route
Departure Airport
Arrival Airport
Navaid (VOR, NDB)
Fix

Horizontal Profiles

Position Reports

Time Latitude Longitude Heading Altitude Ground
Speed
11-Jan-17 09:44 34.204922 -118.492385 268 806ft 0kts
11-Jan-17 09:45 34.204922 -118.492385 268 806ft 0kts
11-Jan-17 09:46 34.204922 -118.492385 268 806ft 0kts
11-Jan-17 09:47 34.204922 -118.492385 268 806ft 0kts
11-Jan-17 09:48 34.204922 -118.492385 268 806ft 0kts
11-Jan-17 09:49 34.204922 -118.492385 268 806ft 0kts
11-Jan-17 09:50 34.204922 -118.492385 268 806ft 0kts
11-Jan-17 09:51 34.204922 -118.492385 268 806ft 0kts
11-Jan-17 09:52 34.204922 -118.492385 268 806ft 0kts
11-Jan-17 09:53 34.204922 -118.492385 268 806ft 0kts
11-Jan-17 09:54 34.204922 -118.492385 268 806ft 0kts
11-Jan-17 09:55 34.204922 -118.492385 268 806ft 0kts
11-Jan-17 09:56 34.204922 -118.492385 268 806ft 0kts
11-Jan-17 09:57 34.204922 -118.492385 268 806ft 0kts
11-Jan-17 09:58 34.204922 -118.492385 268 806ft 0kts
11-Jan-17 09:59 34.204922 -118.492385 268 806ft 0kts
11-Jan-17 10:00 34.204922 -118.492385 268 806ft 0kts
11-Jan-17 10:01 34.204922 -118.492385 268 806ft 0kts
11-Jan-17 10:02 34.204922 -118.492385 268 806ft 0kts
11-Jan-17 10:03 34.204922 -118.492385 268 806ft 0kts
11-Jan-17 10:04 34.204922 -118.492385 268 806ft 0kts
11-Jan-17 10:05 34.204922 -118.492385 268 806ft 0kts
11-Jan-17 10:06 34.204922 -118.492385 268 806ft 0kts
11-Jan-17 10:07 34.204931 -118.492432 294 806ft 0kts
11-Jan-17 10:08 34.205120 -118.492568 6 806ft 0kts
11-Jan-17 10:09 34.205120 -118.492568 6 806ft 0kts
11-Jan-17 10:10 34.205121 -118.492568 6 806ft 0kts
11-Jan-17 10:11 34.205152 -118.492559 15 806ft 0kts
11-Jan-17 10:12 34.205153 -118.492559 15 806ft 0kts
11-Jan-17 10:13 34.205155 -118.492558 15 806ft 0kts
11-Jan-17 10:14 34.207962 -118.491452 4 806ft 19kts
11-Jan-17 10:15 34.214848 -118.491935 355 806ft 16kts
11-Jan-17 10:16 34.218011 -118.491963 63 806ft 6kts
11-Jan-17 10:17 34.218034 -118.491880 81 806ft 0kts
11-Jan-17 10:18 34.218034 -118.491879 81 806ft 0kts
11-Jan-17 10:19 34.217826 -118.491140 165 806ft 1kts
11-Jan-17 10:20 34.212295 -118.490614 175 806ft 88kts
11-Jan-17 10:21 34.184540 -118.487883 171 1408ft 93kts
11-Jan-17 10:22 34.165053 -118.466943 129 2151ft 90kts
11-Jan-17 10:23 34.148049 -118.439005 132 3340ft 107kts
11-Jan-17 10:24 34.140376 -118.397127 98 4497ft 135kts
11-Jan-17 10:25 34.137699 -118.345053 100 5006ft 177kts
11-Jan-17 10:26 34.131497 -118.282298 97 4968ft 198kts
11-Jan-17 10:27 34.125673 -118.216270 95 4961ft 198kts
11-Jan-17 10:28 34.119095 -118.150703 116 4932ft 196kts
11-Jan-17 10:29 34.098208 -118.092769 107 4980ft 190kts
11-Jan-17 10:30 34.084770 -118.030964 109 5032ft 195kts
11-Jan-17 10:31 34.065932 -117.972655 121 4990ft 184kts
11-Jan-17 10:32 34.046267 -117.915685 104 4744ft 188kts
11-Jan-17 10:33 34.030191 -117.859014 120 4979ft 186kts
11-Jan-17 10:34 34.009481 -117.801272 113 5125ft 188kts
11-Jan-17 10:35 33.975215 -117.779627 197 4775ft 171kts
11-Jan-17 10:36 33.925867 -117.774567 172 4260ft 186kts
11-Jan-17 10:37 33.878662 -117.777558 185 4029ft 179kts
11-Jan-17 10:38 33.829770 -117.776139 168 3624ft 189kts
11-Jan-17 10:39 33.785569 -117.792348 223 3397ft 166kts
11-Jan-17 10:40 34.204922 -118.492388 268 806ft 0kts
11-Jan-17 10:41 34.204922 -118.492388 268 806ft 0kts
11-Jan-17 10:42 34.204922 -118.492389 268 806ft 0kts
11-Jan-17 10:43 34.204922 -118.492389 268 806ft 0kts
11-Jan-17 10:44 34.204922 -118.492390 268 806ft 0kts
11-Jan-17 10:45 34.204922 -118.492390 268 806ft 0kts
11-Jan-17 10:46 34.204922 -118.492391 268 806ft 0kts
11-Jan-17 10:47 34.204922 -118.492391 268 806ft 0kts
11-Jan-17 10:48 34.204922 -118.492392 268 806ft 0kts
11-Jan-17 10:49 34.204922 -118.492392 268 806ft 0kts
11-Jan-17 10:50 34.204922 -118.492393 268 806ft 0kts
11-Jan-17 10:51 34.204922 -118.492393 268 806ft 0kts
11-Jan-17 10:52 34.204922 -118.492394 268 806ft 0kts
11-Jan-17 10:53 34.204922 -118.492394 268 806ft 0kts
11-Jan-17 10:54 34.204922 -118.492395 268 806ft 0kts
11-Jan-17 10:55 34.204922 -118.492395 268 806ft 0kts
11-Jan-17 10:56 34.204922 -118.492396 268 806ft 0kts
11-Jan-17 10:57 34.204922 -118.492396 268 806ft 0kts
11-Jan-17 10:58 34.204922 -118.492397 268 806ft 0kts
11-Jan-17 10:59 34.204922 -118.492397 268 806ft 0kts
11-Jan-17 11:00 34.204922 -118.492398 268 806ft 0kts
11-Jan-17 11:01 34.204922 -118.492398 268 806ft 0kts
11-Jan-17 11:02 34.204922 -118.492399 268 806ft 0kts
11-Jan-17 11:03 34.204922 -118.492399 268 806ft 0kts
11-Jan-17 11:04 34.204922 -118.492400 268 806ft 0kts
11-Jan-17 11:05 34.204922 -118.492401 268 806ft 0kts
11-Jan-17 11:06 34.204922 -118.492401 268 806ft 0kts
11-Jan-17 11:07 34.204922 -118.492402 268 806ft 0kts
11-Jan-17 11:08 34.204922 -118.492402 268 806ft 0kts
11-Jan-17 11:09 34.204922 -118.492403 268 806ft 0kts
11-Jan-17 11:10 34.204922 -118.492403 268 806ft 0kts
11-Jan-17 11:11 34.204922 -118.492404 268 806ft 0kts
11-Jan-17 11:12 34.204922 -118.492404 268 806ft 0kts
11-Jan-17 11:13 34.204922 -118.492405 268 806ft 0kts
11-Jan-17 11:14 34.204922 -118.492405 268 806ft 0kts
11-Jan-17 11:15 34.204922 -118.492406 268 806ft 0kts
11-Jan-17 11:16 34.204922 -118.492406 268 806ft 0kts
11-Jan-17 11:17 34.204922 -118.492407 268 806ft 0kts
11-Jan-17 11:18 34.204922 -118.492407 268 806ft 0kts
11-Jan-17 11:19 34.204922 -118.492408 268 806ft 0kts
11-Jan-17 11:20 34.204922 -118.492408 268 806ft 0kts
11-Jan-17 11:21 34.204922 -118.492409 268 806ft 0kts
11-Jan-17 11:22 34.204922 -118.492409 268 806ft 0kts
11-Jan-17 11:23 34.204922 -118.492410 268 806ft 0kts
11-Jan-17 11:24 34.204922 -118.492410 268 806ft 0kts
11-Jan-17 11:25 34.204922 -118.492411 268 806ft 0kts
11-Jan-17 11:26 34.204922 -118.492411 268 806ft 0kts
11-Jan-17 11:27 34.204922 -118.492412 268 806ft 0kts
11-Jan-17 11:28 34.204922 -118.492412 268 806ft 0kts
11-Jan-17 11:29 34.204922 -118.492413 268 806ft 0kts
11-Jan-17 11:30 34.204922 -118.492413 268 806ft 0kts
11-Jan-17 11:31 34.204922 -118.492414 268 806ft 0kts
11-Jan-17 11:32 34.204922 -118.492414 268 806ft 0kts
11-Jan-17 11:33 34.204922 -118.492415 268 806ft 0kts
11-Jan-17 11:34 34.204922 -118.492415 268 806ft 0kts
11-Jan-17 11:35 34.204922 -118.492416 268 806ft 0kts
11-Jan-17 11:36 34.204922 -118.492416 268 806ft 0kts
11-Jan-17 11:37 34.204922 -118.492417 268 806ft 0kts
11-Jan-17 11:38 34.204922 -118.492417 268 806ft 0kts
11-Jan-17 11:39 34.204922 -118.492418 268 806ft 0kts
11-Jan-17 11:40 34.204922 -118.492418 268 806ft 0kts
11-Jan-17 11:41 34.204922 -118.492419 268 806ft 0kts
11-Jan-17 11:42 34.204922 -118.492419 268 806ft 0kts
11-Jan-17 11:43 34.204922 -118.492420 268 806ft 0kts
11-Jan-17 11:44 34.204922 -118.492420 268 806ft 0kts
11-Jan-17 11:45 34.204922 -118.492421 268 806ft 0kts
11-Jan-17 11:46 34.204922 -118.492421 268 806ft 0kts
11-Jan-17 11:47 34.204922 -118.492422 268 806ft 0kts
11-Jan-17 11:48 34.204922 -118.492422 268 806ft 0kts
11-Jan-17 11:49 34.204922 -118.492423 268 806ft 0kts
11-Jan-17 11:50 34.204922 -118.492423 268 806ft 0kts
11-Jan-17 11:51 34.204922 -118.492424 268 806ft 0kts
11-Jan-17 11:52 34.204922 -118.492424 268 806ft 0kts
11-Jan-17 11:53 34.204922 -118.492425 268 806ft 0kts
11-Jan-17 11:54 34.204922 -118.492426 268 806ft 0kts
11-Jan-17 11:55 34.205501 -118.491829 94 806ft 3kts
11-Jan-17 11:56 34.208082 -118.491349 356 806ft 30kts
11-Jan-17 11:57 34.216843 -118.492093 355 806ft 20kts
11-Jan-17 11:58 34.218032 -118.491862 76 806ft 0kts
11-Jan-17 11:59 34.218032 -118.491862 76 806ft 0kts
11-Jan-17 12:00 34.218032 -118.491861 76 806ft 0kts
11-Jan-17 12:01 34.215336 -118.490935 175 806ft 64kts
11-Jan-17 12:02 34.189928 -118.489613 185 1466ft 88kts
11-Jan-17 12:03 34.173449 -118.469083 117 2254ft 88kts
11-Jan-17 12:04 34.162106 -118.437011 112 3451ft 114kts
11-Jan-17 12:05 34.156430 -118.401728 85 4871ft 106kts
11-Jan-17 12:06 34.161565 -118.354455 84 5149ft 179kts
11-Jan-17 12:07 34.164736 -118.290095 97 5059ft 196kts
11-Jan-17 12:08 34.145840 -118.229119 112 5105ft 194kts
11-Jan-17 12:09 34.127417 -118.167621 117 5081ft 196kts
11-Jan-17 12:10 34.106976 -118.108180 114 5184ft 179kts
11-Jan-17 12:11 34.090610 -118.050880 114 5109ft 190kts
11-Jan-17 12:12 34.071143 -117.991239 114 5025ft 189kts
11-Jan-17 12:13 34.054819 -117.931651 115 4955ft 177kts
11-Jan-17 12:14 34.035814 -117.876338 116 4961ft 184kts
11-Jan-17 12:15 34.015452 -117.818594 119 5033ft 189kts
11-Jan-17 12:16 33.979520 -117.781609 180 4406ft 171kts
11-Jan-17 12:17 33.935603 -117.774314 177 4099ft 138kts
11-Jan-17 12:18 33.901035 -117.758093 139 4076ft 144kts
11-Jan-17 12:19 33.869458 -117.738202 202 3959ft 131kts
11-Jan-17 12:20 33.837650 -117.759819 222 3537ft 137kts
11-Jan-17 12:21 33.805501 -117.784501 194 2940ft 144kts
11-Jan-17 12:22 33.770593 -117.809929 209 1951ft 148kts
11-Jan-17 12:23 33.738433 -117.828241 203 1303ft 104kts
11-Jan-17 12:24 33.715606 -117.843553 205 832ft 83kts
11-Jan-17 12:25 33.694689 -117.856547 206 406ft 80kts
11-Jan-17 12:26 33.679238 -117.866531 206 60ft 26kts
11-Jan-17 12:27 33.678615 -117.866930 208 60ft 0kts
11-Jan-17 12:28 33.678287 -117.867961 300 60ft 0kts
11-Jan-17 12:29 33.678288 -117.867961 300 60ft 0kts
11-Jan-17 12:30 33.678288 -117.867962 300 60ft 0kts

Navigation Log

Ident Type
1. KVNY Airport
2. ADAMM Fix
3. ADAMM Fix
4. BAYJY Fix
5. BAYJY Fix
6. PRADO Fix
7. POXKU Fix
8. POXKU Fix
9. OLLIE Fix
10. AHEIM Fix
11. SLI Navaid
12. KSNA Airport